createdAt,value
2019-03-31T00:02:07.535Z,5.70
2019-03-31T00:04:36.197Z,5.70
2019-03-31T00:07:04.420Z,5.40
2019-03-31T00:09:32.676Z,5.60
2019-03-31T00:12:00.934Z,5.50
2019-03-31T00:14:29.163Z,5.50
2019-03-31T00:16:57.421Z,5.50
2019-03-31T00:19:25.641Z,5.50
2019-03-31T00:21:53.887Z,5.40
2019-03-31T00:24:22.094Z,5.40
2019-03-31T00:26:50.314Z,5.30
2019-03-31T00:29:18.563Z,5.20
2019-03-31T00:31:46.786Z,5.20
2019-03-31T00:34:15.355Z,5.20
2019-03-31T00:36:43.575Z,5.20
2019-03-31T00:39:11.778Z,5.20
2019-03-31T00:41:40.002Z,5.10
2019-03-31T00:44:08.210Z,5.10
2019-03-31T00:46:36.790Z,5.10
2019-03-31T00:49:05.035Z,5.10
2019-03-31T00:51:33.241Z,5.10
2019-03-31T00:54:01.464Z,5.00
2019-03-31T00:56:29.685Z,4.90
2019-03-31T00:58:57.926Z,4.90
2019-03-31T01:01:36.866Z,5.00
2019-03-31T01:04:03.950Z,4.90
2019-03-31T01:06:33.937Z,4.80
2019-03-31T01:09:03.700Z,4.80
2019-03-31T01:11:31.955Z,4.80
2019-03-31T01:14:00.195Z,4.80
2019-03-31T01:16:29.325Z,4.80
2019-03-31T01:18:57.502Z,4.70
2019-03-31T01:21:25.718Z,4.70
2019-03-31T01:23:53.949Z,4.70
2019-03-31T01:26:22.170Z,4.80
2019-03-31T01:28:50.682Z,5.50
2019-03-31T01:31:18.893Z,4.80
2019-03-31T01:33:47.144Z,4.70
2019-03-31T01:36:15.373Z,4.50
2019-03-31T01:38:43.962Z,4.50
2019-03-31T01:41:13.530Z,4.50
2019-03-31T01:43:42.219Z,4.50
2019-03-31T01:46:12.078Z,4.50
2019-03-31T01:48:40.295Z,4.40
2019-03-31T01:51:08.518Z,4.30
2019-03-31T01:53:36.738Z,4.30
2019-03-31T01:56:05.327Z,4.30
2019-03-31T01:58:34.182Z,4.30
2019-03-31T02:01:04.058Z,4.20
2019-03-31T02:03:32.276Z,4.20
2019-03-31T02:06:00.555Z,4.20
2019-03-31T02:08:28.758Z,4.20
2019-03-31T02:10:59.018Z,4.10
2019-03-31T02:13:27.278Z,4.00
2019-03-31T02:15:55.502Z,4.00
2019-03-31T02:18:23.720Z,4.00
2019-03-31T02:20:51.942Z,4.00
2019-03-31T02:23:20.175Z,3.90
2019-03-31T02:25:49.998Z,3.90
2019-03-31T02:28:19.598Z,3.90
2019-03-31T02:30:47.817Z,3.80
2019-03-31T02:33:16.324Z,3.80
2019-03-31T02:35:45.310Z,3.80
2019-03-31T02:38:14.939Z,3.70
2019-03-31T02:40:43.147Z,3.70
2019-03-31T02:43:11.371Z,3.70
2019-03-31T02:45:39.612Z,3.70
2019-03-31T02:48:07.887Z,3.70
2019-03-31T02:50:44.809Z,3.50
2019-03-31T02:53:13.787Z,3.60
2019-03-31T02:55:42.713Z,3.70
2019-03-31T02:58:11.665Z,3.60
2019-03-31T03:00:40.252Z,3.50
2019-03-31T03:03:08.510Z,3.60
2019-03-31T03:05:36.717Z,3.50
2019-03-31T03:08:04.981Z,3.40
2019-03-31T03:10:33.193Z,3.40
2019-03-31T03:13:01.423Z,3.40
2019-03-31T03:15:33.013Z,3.30
2019-03-31T03:18:01.002Z,3.40
2019-03-31T03:20:29.254Z,3.40
2019-03-31T03:22:57.478Z,3.40
2019-03-31T03:25:25.716Z,3.40
2019-03-31T03:27:53.966Z,3.30
2019-03-31T03:30:22.255Z,3.40
2019-03-31T03:33:13.483Z,3.40
2019-03-31T03:35:20.565Z,3.50
2019-03-31T03:37:48.816Z,3.50
2019-03-31T03:40:17.060Z,3.40
2019-03-31T03:42:45.286Z,3.40
2019-03-31T03:45:13.507Z,3.20
2019-03-31T03:47:41.727Z,3.40
2019-03-31T03:50:09.941Z,3.40
2019-03-31T03:52:38.201Z,3.30
2019-03-31T03:55:06.401Z,3.20
2019-03-31T03:57:34.626Z,3.10
2019-03-31T04:00:03.594Z,3.10
2019-03-31T04:02:31.803Z,3.10
2019-03-31T04:05:00.023Z,3.00
2019-03-31T04:07:28.244Z,3.00
2019-03-31T04:09:56.467Z,3.00
2019-03-31T04:12:24.977Z,3.00
2019-03-31T04:14:53.232Z,2.90
2019-03-31T04:17:21.547Z,2.90
2019-03-31T04:19:49.768Z,2.90
2019-03-31T04:22:17.971Z,2.90
2019-03-31T04:24:46.185Z,2.90
2019-03-31T04:27:18.696Z,2.90
2019-03-31T04:29:44.916Z,2.90
2019-03-31T04:32:13.138Z,2.80
2019-03-31T04:34:41.399Z,2.90
2019-03-31T04:37:09.657Z,2.80
2019-03-31T04:39:37.860Z,2.90
2019-03-31T04:42:06.120Z,2.90
2019-03-31T04:44:36.323Z,3.00
2019-03-31T04:47:04.555Z,3.00
2019-03-31T04:49:33.045Z,3.00
2019-03-31T04:52:01.277Z,2.80
2019-03-31T04:54:29.487Z,2.70
2019-03-31T04:56:57.699Z,2.70
2019-03-31T04:59:25.993Z,2.80
2019-03-31T05:01:54.217Z,2.70
2019-03-31T05:04:22.464Z,2.70
2019-03-31T05:06:51.322Z,2.60
2019-03-31T05:09:19.554Z,2.60
2019-03-31T05:11:48.136Z,2.60
2019-03-31T05:14:16.352Z,2.60
2019-03-31T05:16:44.565Z,2.60
2019-03-31T05:19:12.813Z,2.60
2019-03-31T05:21:41.020Z,2.50
2019-03-31T05:24:09.280Z,2.60
2019-03-31T05:26:37.481Z,2.60
2019-03-31T05:29:06.179Z,2.60
2019-03-31T05:31:34.500Z,2.60
2019-03-31T05:34:02.710Z,2.60
2019-03-31T05:36:30.930Z,2.70
2019-03-31T05:38:59.163Z,2.80
2019-03-31T05:41:27.423Z,2.80
2019-03-31T05:44:05.509Z,2.90
2019-03-31T05:46:25.644Z,3.00
2019-03-31T05:48:53.886Z,3.10
2019-03-31T05:51:24.167Z,3.20
2019-03-31T05:53:52.453Z,3.30
2019-03-31T05:56:20.670Z,3.40
2019-03-31T05:58:50.413Z,3.50
2019-03-31T06:01:18.622Z,3.60
2019-03-31T06:03:46.858Z,3.80
2019-03-31T06:06:15.911Z,4.00
2019-03-31T06:08:44.143Z,4.10
2019-03-31T06:11:12.376Z,4.30
2019-03-31T06:13:40.598Z,4.50
2019-03-31T06:16:08.888Z,4.70
2019-03-31T06:18:37.138Z,4.90
2019-03-31T06:21:05.457Z,5.10
2019-03-31T06:23:33.713Z,5.30
2019-03-31T06:26:01.942Z,5.50
2019-03-31T06:28:30.161Z,5.80
2019-03-31T06:30:58.378Z,6.00
2019-03-31T06:33:26.686Z,6.30
2019-03-31T06:35:54.911Z,6.50
2019-03-31T06:38:23.138Z,6.70
2019-03-31T06:40:53.001Z,7.00
2019-03-31T06:43:21.231Z,7.30
2019-03-31T06:45:49.460Z,7.40
2019-03-31T06:48:17.675Z,7.60
2019-03-31T06:50:46.007Z,7.80
2019-03-31T06:53:14.250Z,8.00
2019-03-31T06:55:43.176Z,8.20
2019-03-31T06:58:11.427Z,8.50
2019-03-31T07:00:39.649Z,8.80
2019-03-31T07:03:07.891Z,9.10
2019-03-31T07:05:36.139Z,9.40
2019-03-31T07:08:04.527Z,9.80
2019-03-31T07:10:33.738Z,10.30
2019-03-31T07:13:01.984Z,10.60
2019-03-31T07:15:30.240Z,11.10
2019-03-31T07:18:00.549Z,11.30
2019-03-31T07:20:28.767Z,11.70
2019-03-31T07:22:56.982Z,12.00
2019-03-31T07:25:25.210Z,12.30
2019-03-31T07:27:53.439Z,12.60
2019-03-31T07:30:21.684Z,12.90
2019-03-31T07:32:49.899Z,13.20
2019-03-31T07:35:19.223Z,13.30
2019-03-31T07:37:47.950Z,13.60
2019-03-31T07:40:20.096Z,13.90
2019-03-31T07:42:51.109Z,14.30
2019-03-31T07:45:18.431Z,14.50
2019-03-31T07:47:47.696Z,14.70
2019-03-31T07:50:16.849Z,14.90
2019-03-31T07:52:45.140Z,14.90
2019-03-31T07:55:13.537Z,15.00
2019-03-31T07:57:41.814Z,15.30
2019-03-31T08:00:13.934Z,15.70
2019-03-31T08:02:42.127Z,15.90
2019-03-31T08:05:10.397Z,16.30
2019-03-31T08:07:39.466Z,16.60
2019-03-31T08:10:07.914Z,17.00
2019-03-31T08:12:36.151Z,17.40
2019-03-31T08:15:08.009Z,17.80
2019-03-31T08:17:36.314Z,18.20
2019-03-31T08:20:11.629Z,18.50
2019-03-31T08:22:39.854Z,18.70
2019-03-31T08:25:08.188Z,18.90
2019-03-31T08:27:36.406Z,19.10
2019-03-31T08:30:07.375Z,19.00
2019-03-31T08:32:35.600Z,19.40
2019-03-31T08:35:06.361Z,19.50
2019-03-31T08:37:34.615Z,19.70
2019-03-31T08:40:02.883Z,20.10
2019-03-31T08:42:31.111Z,20.40
2019-03-31T08:44:59.335Z,20.60
2019-03-31T08:47:27.563Z,20.80
2019-03-31T08:49:55.833Z,21.10
2019-03-31T08:52:24.086Z,21.40
2019-03-31T08:54:52.301Z,21.70
2019-03-31T08:57:20.546Z,22.00
2019-03-31T08:59:48.878Z,22.30
2019-03-31T09:02:30.966Z,22.60
2019-03-31T09:04:59.194Z,22.80
2019-03-31T09:07:27.410Z,23.10
2019-03-31T09:09:55.641Z,23.40
2019-03-31T09:12:23.853Z,23.70
2019-03-31T09:14:52.139Z,23.70
2019-03-31T09:17:20.342Z,23.90
2019-03-31T09:19:48.574Z,24.00
2019-03-31T09:22:16.803Z,24.10
2019-03-31T09:24:45.063Z,24.10
2019-03-31T09:27:13.294Z,24.10
2019-03-31T09:29:41.521Z,24.40
2019-03-31T09:32:09.743Z,24.70
2019-03-31T09:34:38.008Z,24.80
2019-03-31T09:37:06.259Z,24.70
2019-03-31T09:39:34.482Z,24.60
2019-03-31T09:42:02.698Z,24.90
2019-03-31T09:44:30.942Z,24.80
2019-03-31T09:46:59.161Z,24.90
2019-03-31T09:49:28.886Z,25.20
2019-03-31T09:51:57.110Z,25.60
2019-03-31T09:54:25.388Z,25.80
2019-03-31T09:56:53.591Z,25.50
2019-03-31T09:59:21.819Z,25.70
2019-03-31T10:01:50.094Z,25.80
2019-03-31T10:04:18.345Z,25.90
2019-03-31T10:06:46.574Z,26.10
2019-03-31T10:09:14.804Z,26.30
2019-03-31T10:11:43.025Z,26.50
2019-03-31T10:14:11.242Z,26.50
2019-03-31T10:16:39.472Z,26.40
2019-03-31T10:19:07.699Z,26.60
2019-03-31T10:21:35.965Z,27.00
2019-03-31T10:24:04.293Z,26.50
2019-03-31T10:26:32.639Z,25.80
2019-03-31T10:29:00.937Z,26.00
2019-03-31T10:31:29.187Z,26.30
2019-03-31T10:33:57.413Z,26.70
2019-03-31T10:36:25.637Z,26.90
2019-03-31T10:38:53.851Z,27.20
2019-03-31T10:41:22.155Z,27.80
2019-03-31T10:43:50.404Z,27.70
2019-03-31T10:46:18.626Z,27.70
2019-03-31T10:48:46.879Z,28.20
2019-03-31T10:51:15.119Z,28.20
2019-03-31T10:53:43.375Z,28.10
2019-03-31T10:56:11.632Z,28.20
2019-03-31T10:58:39.846Z,28.00
2019-03-31T11:01:08.086Z,27.70
2019-03-31T11:03:36.307Z,27.60
2019-03-31T11:06:04.538Z,27.80
2019-03-31T11:08:32.749Z,27.90
2019-03-31T11:11:00.970Z,28.00
2019-03-31T11:13:29.198Z,28.10
2019-03-31T11:15:57.697Z,28.30
2019-03-31T11:18:26.187Z,28.50
2019-03-31T11:20:55.449Z,28.30
2019-03-31T11:23:25.584Z,27.70
2019-03-31T11:25:53.806Z,28.10
2019-03-31T11:28:22.059Z,28.40
2019-03-31T11:30:50.667Z,28.70
2019-03-31T11:33:18.878Z,29.00
2019-03-31T11:35:47.115Z,28.50
2019-03-31T11:38:15.442Z,28.10
2019-03-31T11:40:43.672Z,28.30
2019-03-31T11:43:11.894Z,27.50
2019-03-31T11:45:40.175Z,27.80
2019-03-31T11:48:08.387Z,28.20
2019-03-31T11:50:36.656Z,28.00
2019-03-31T11:53:05.443Z,28.00
2019-03-31T11:55:33.687Z,28.80
2019-03-31T11:58:01.903Z,28.80
2019-03-31T12:00:31.811Z,28.50
2019-03-31T12:03:00.042Z,28.20
2019-03-31T12:05:28.266Z,28.10
2019-03-31T12:07:56.557Z,28.30
2019-03-31T12:10:25.255Z,28.10
2019-03-31T12:12:53.478Z,28.40
2019-03-31T12:15:21.696Z,28.40
2019-03-31T12:17:49.930Z,28.50
2019-03-31T12:20:18.171Z,28.50
2019-03-31T12:22:46.483Z,28.40
2019-03-31T12:25:14.707Z,28.50
2019-03-31T12:27:44.307Z,28.60
2019-03-31T12:30:13.154Z,29.20
2019-03-31T12:32:41.394Z,28.20
2019-03-31T12:35:10.192Z,28.10
2019-03-31T12:37:42.570Z,28.10
2019-03-31T12:40:15.234Z,28.40
2019-03-31T12:42:42.020Z,28.70
2019-03-31T12:45:12.969Z,28.70
2019-03-31T12:47:41.232Z,29.20
2019-03-31T12:50:09.454Z,29.00
2019-03-31T12:52:46.525Z,28.70
2019-03-31T12:55:07.640Z,28.40
2019-03-31T12:57:35.882Z,28.20
2019-03-31T13:00:05.986Z,28.60
2019-03-31T13:02:34.218Z,29.50
2019-03-31T13:05:02.532Z,30.00
2019-03-31T13:07:30.750Z,29.60
2019-03-31T13:09:58.977Z,29.80
2019-03-31T13:12:27.199Z,29.40
2019-03-31T13:14:55.465Z,29.80
2019-03-31T13:17:23.725Z,29.90
2019-03-31T13:19:51.946Z,29.80
2019-03-31T13:22:20.182Z,29.50
2019-03-31T13:24:48.398Z,29.40
2019-03-31T13:27:16.621Z,29.40
2019-03-31T13:29:44.850Z,29.10
2019-03-31T13:32:13.073Z,29.50
2019-03-31T13:34:41.340Z,29.70
2019-03-31T13:37:11.195Z,29.90
2019-03-31T13:39:39.409Z,30.00
2019-03-31T13:42:07.712Z,30.20
2019-03-31T13:44:35.929Z,29.90
2019-03-31T13:47:04.162Z,29.70
2019-03-31T13:49:32.383Z,29.40
2019-03-31T13:52:00.639Z,29.50
2019-03-31T13:54:28.942Z,29.80
2019-03-31T13:56:57.945Z,28.90
2019-03-31T13:59:38.970Z,29.10
2019-03-31T14:02:07.192Z,29.40
2019-03-31T14:04:50.680Z,28.10
2019-03-31T14:07:05.860Z,27.40
2019-03-31T14:09:34.088Z,27.50
2019-03-31T14:12:02.320Z,27.40
2019-03-31T14:14:30.535Z,27.60
2019-03-31T14:16:58.767Z,28.10
2019-03-31T14:19:27.331Z,27.70
2019-03-31T14:21:55.566Z,27.50
2019-03-31T14:24:26.776Z,28.00
2019-03-31T14:26:53.772Z,27.40
2019-03-31T14:29:22.028Z,26.40
2019-03-31T14:31:51.933Z,26.50
2019-03-31T14:34:20.185Z,26.70
2019-03-31T14:36:48.401Z,27.10
2019-03-31T14:39:17.261Z,27.00
2019-03-31T14:41:45.635Z,27.10
2019-03-31T14:44:13.897Z,26.40
2019-03-31T14:46:42.147Z,25.90
2019-03-31T14:49:10.374Z,25.60
2019-03-31T14:51:38.602Z,25.60
2019-03-31T14:54:06.843Z,25.70
2019-03-31T14:56:35.096Z,25.40
2019-03-31T14:59:03.319Z,25.40
2019-03-31T15:01:31.590Z,24.60
2019-03-31T15:03:59.835Z,24.50
2019-03-31T15:06:28.057Z,23.80
2019-03-31T15:08:56.284Z,23.70
2019-03-31T15:11:43.967Z,23.90
2019-03-31T15:14:12.203Z,24.20
2019-03-31T15:16:40.465Z,24.30
2019-03-31T15:19:08.679Z,24.10
2019-03-31T15:21:43.927Z,23.80
2019-03-31T15:24:06.966Z,23.50
2019-03-31T15:26:35.460Z,23.30
2019-03-31T15:29:03.758Z,23.30
2019-03-31T15:31:31.990Z,23.20
2019-03-31T15:34:00.208Z,23.10
2019-03-31T15:36:28.439Z,22.80
2019-03-31T15:39:08.128Z,22.50
2019-03-31T15:41:26.616Z,22.30
2019-03-31T15:43:54.880Z,22.30
2019-03-31T15:46:24.608Z,21.90
2019-03-31T15:48:53.212Z,21.60
2019-03-31T15:51:21.467Z,21.40
2019-03-31T15:53:49.688Z,21.20
2019-03-31T15:56:17.935Z,21.00
2019-03-31T15:58:46.162Z,21.10
2019-03-31T16:01:14.834Z,21.20
2019-03-31T16:03:43.111Z,21.10
2019-03-31T16:06:11.331Z,20.90
2019-03-31T16:08:39.577Z,20.80
2019-03-31T16:11:07.830Z,20.70
2019-03-31T16:13:36.128Z,20.40
2019-03-31T16:16:04.356Z,20.40
2019-03-31T16:18:32.623Z,20.50
2019-03-31T16:21:00.861Z,20.30
2019-03-31T16:23:29.094Z,20.20
2019-03-31T16:25:58.487Z,19.90
2019-03-31T16:28:26.762Z,19.50
2019-03-31T16:30:54.978Z,19.50
2019-03-31T16:33:23.215Z,19.30
2019-03-31T16:35:51.472Z,19.30
2019-03-31T16:38:19.698Z,19.30
2019-03-31T16:40:47.975Z,19.20
2019-03-31T16:43:16.197Z,19.10
2019-03-31T16:45:44.596Z,18.90
2019-03-31T16:48:12.828Z,18.70
2019-03-31T16:50:41.054Z,18.70
2019-03-31T16:53:09.273Z,18.50
2019-03-31T16:55:37.516Z,18.40
2019-03-31T16:58:09.201Z,18.30
2019-03-31T17:00:35.730Z,18.20
2019-03-31T17:03:04.102Z,18.20
2019-03-31T17:05:32.343Z,18.10
2019-03-31T17:08:00.660Z,17.90
2019-03-31T17:10:28.890Z,17.70
2019-03-31T17:12:57.119Z,17.70
2019-03-31T17:15:25.359Z,17.70
2019-03-31T17:17:53.609Z,17.50
2019-03-31T17:20:21.863Z,17.40
2019-03-31T17:22:50.124Z,17.40
2019-03-31T17:25:18.353Z,17.40
2019-03-31T17:27:46.570Z,17.30
2019-03-31T17:30:14.810Z,17.20
2019-03-31T17:32:43.053Z,17.10
2019-03-31T17:35:11.289Z,16.90
2019-03-31T17:37:39.499Z,16.90
2019-03-31T17:40:07.731Z,16.90
2019-03-31T17:42:35.970Z,16.80
2019-03-31T17:45:06.168Z,16.60
2019-03-31T17:47:34.427Z,16.60
2019-03-31T17:50:02.659Z,16.50
2019-03-31T17:52:30.882Z,16.40
2019-03-31T17:54:59.132Z,16.40
2019-03-31T17:57:27.410Z,16.30
2019-03-31T17:59:55.679Z,16.10
2019-03-31T18:02:23.963Z,15.90
2019-03-31T18:04:52.464Z,15.80
2019-03-31T18:07:20.682Z,15.80
2019-03-31T18:09:49.926Z,15.80
2019-03-31T18:12:18.187Z,15.70
2019-03-31T18:14:46.423Z,15.60
2019-03-31T18:17:14.722Z,15.50
2019-03-31T18:19:43.184Z,15.40
2019-03-31T18:22:16.815Z,15.40
2019-03-31T18:24:42.326Z,15.20
2019-03-31T18:27:10.788Z,15.10
2019-03-31T18:29:40.214Z,15.10
2019-03-31T18:32:08.487Z,15.00
2019-03-31T18:34:36.715Z,15.00
2019-03-31T18:37:05.122Z,14.90
2019-03-31T18:39:33.567Z,14.90
2019-03-31T18:42:02.164Z,14.80
2019-03-31T18:44:30.611Z,14.70
2019-03-31T18:46:59.159Z,14.70
2019-03-31T18:49:27.374Z,14.60
2019-03-31T18:52:00.807Z,14.60
2019-03-31T18:54:46.004Z,14.50
2019-03-31T18:57:16.563Z,14.40
2019-03-31T18:59:55.402Z,14.40
2019-03-31T19:02:43.294Z,14.30
2019-03-31T19:05:13.235Z,14.30
2019-03-31T19:07:55.292Z,14.20
2019-03-31T19:10:31.495Z,14.20
2019-03-31T19:13:18.174Z,14.10
2019-03-31T19:16:04.278Z,13.90
2019-03-31T19:18:50.411Z,13.90
2019-03-31T19:21:23.421Z,13.90
2019-03-31T19:23:53.435Z,13.80
2019-03-31T19:26:48.206Z,13.80
2019-03-31T19:29:11.711Z,13.70
2019-03-31T19:31:56.714Z,13.60
2019-03-31T19:34:26.589Z,13.50
2019-03-31T19:37:05.529Z,13.50
2019-03-31T19:39:38.686Z,13.40
2019-03-31T19:42:27.159Z,13.40
2019-03-31T19:44:57.027Z,13.20
2019-03-31T19:47:32.627Z,13.10
2019-03-31T19:50:05.511Z,13.10
2019-03-31T19:52:44.463Z,13.10
2019-03-31T19:55:20.519Z,13.00
2019-03-31T19:57:51.378Z,12.80
2019-03-31T20:00:21.251Z,12.90
2019-03-31T20:02:51.386Z,12.80
2019-03-31T20:05:21.336Z,12.70
2019-03-31T20:07:56.946Z,12.60
2019-03-31T20:10:43.232Z,12.50
2019-03-31T20:13:29.707Z,12.50
2019-03-31T20:16:19.630Z,12.40
2019-03-31T20:18:55.690Z,12.20
2019-03-31T20:21:31.944Z,12.10
2019-03-31T20:24:09.562Z,11.90
2019-03-31T20:26:57.785Z,11.80
2019-03-31T20:29:36.851Z,11.70
2019-03-31T20:32:23.442Z,11.40
2019-03-31T20:34:53.347Z,11.40
2019-03-31T20:37:26.250Z,11.40
2019-03-31T20:40:05.177Z,11.50
2019-03-31T20:42:51.957Z,11.30
2019-03-31T20:45:20.179Z,11.30
2019-03-31T20:47:48.640Z,11.20
2019-03-31T20:50:16.830Z,11.10
2019-03-31T20:52:45.136Z,11.00
2019-03-31T20:55:16.557Z,10.90
2019-03-31T20:57:43.405Z,10.90
2019-03-31T21:00:11.957Z,10.80
2019-03-31T21:02:40.291Z,10.70
2019-03-31T21:05:08.529Z,10.70
2019-03-31T21:07:36.759Z,10.60
2019-03-31T21:10:06.370Z,10.50
2019-03-31T21:12:34.591Z,10.40
2019-03-31T21:15:02.875Z,10.30
2019-03-31T21:17:31.165Z,10.20
2019-03-31T21:19:59.422Z,10.10
2019-03-31T21:22:27.645Z,10.00
2019-03-31T21:24:56.006Z,10.00
2019-03-31T21:27:24.214Z,9.80
2019-03-31T21:29:53.543Z,9.60
2019-03-31T21:32:21.779Z,9.70
2019-03-31T21:34:50.140Z,9.70
2019-03-31T21:37:18.383Z,9.70
2019-03-31T21:39:46.656Z,9.60
2019-03-31T21:42:14.887Z,9.60
2019-03-31T21:44:43.220Z,9.60
2019-03-31T21:47:11.435Z,9.60
2019-03-31T21:49:39.773Z,9.40
2019-03-31T21:52:08.077Z,9.40
2019-03-31T21:54:36.314Z,9.30
2019-03-31T21:57:04.521Z,9.20
2019-03-31T21:59:33.648Z,9.10
2019-03-31T22:02:02.074Z,9.00
2019-03-31T22:04:30.399Z,8.90
2019-03-31T22:06:58.699Z,8.90
2019-03-31T22:09:26.971Z,8.90
2019-03-31T22:11:55.275Z,8.90
2019-03-31T22:14:23.770Z,8.90
2019-03-31T22:16:52.056Z,8.80
2019-03-31T22:19:20.325Z,8.70
2019-03-31T22:21:48.599Z,8.70
2019-03-31T22:24:16.837Z,8.70
2019-03-31T22:26:45.065Z,8.70
2019-03-31T22:29:13.360Z,8.70
2019-03-31T22:31:41.657Z,8.70
2019-03-31T22:34:09.943Z,8.80
2019-03-31T22:36:38.175Z,8.70
2019-03-31T22:39:06.403Z,8.70
2019-03-31T22:41:34.632Z,8.80
2019-03-31T22:44:03.346Z,8.70
2019-03-31T22:46:31.558Z,8.70
2019-03-31T22:48:59.836Z,8.70
2019-03-31T22:51:28.095Z,8.60
2019-03-31T22:53:56.384Z,8.70
2019-03-31T22:56:24.639Z,8.80
2019-03-31T22:58:52.943Z,8.80
2019-03-31T23:01:21.169Z,8.70
2019-03-31T23:03:49.477Z,8.60
2019-03-31T23:06:17.738Z,8.70
2019-03-31T23:08:46.004Z,8.60
2019-03-31T23:11:14.221Z,8.60
2019-03-31T23:13:42.495Z,8.60
2019-03-31T23:16:10.723Z,8.50
2019-03-31T23:18:38.926Z,8.50
2019-03-31T23:21:07.196Z,8.40
2019-03-31T23:23:35.447Z,8.40
2019-03-31T23:26:03.710Z,8.30
2019-03-31T23:28:31.953Z,8.50
2019-03-31T23:31:03.421Z,8.50
2019-03-31T23:33:30.195Z,8.40
2019-03-31T23:35:58.486Z,8.40
2019-03-31T23:38:26.722Z,8.40
2019-03-31T23:40:54.967Z,8.30
2019-03-31T23:43:23.191Z,8.20
2019-03-31T23:45:51.437Z,8.30
2019-03-31T23:48:19.658Z,8.30
2019-03-31T23:50:48.028Z,8.40
2019-03-31T23:53:16.258Z,8.40
2019-03-31T23:55:44.491Z,8.40
2019-03-31T23:58:12.722Z,8.30
